sensor_id;sensor_type;location;lat;lon;timestamp;P1;durP1;ratioP1;P2;durP2;ratioP2
71083;SDS011;58741;52.672;13.548;2022-12-05T00:00:57;27.13;;;7.90;;
71083;SDS011;58741;52.672;13.548;2022-12-05T00:03:24;15.85;;;7.10;;
71083;SDS011;58741;52.672;13.548;2022-12-05T00:05:50;28.60;;;8.90;;
71083;SDS011;58741;52.672;13.548;2022-12-05T00:08:15;18.15;;;7.57;;
71083;SDS011;58741;52.672;13.548;2022-12-05T00:10:41;24.95;;;6.63;;
71083;SDS011;58741;52.672;13.548;2022-12-05T00:13:07;17.23;;;6.72;;
71083;SDS011;58741;52.672;13.548;2022-12-05T00:15:37;30.13;;;9.27;;
71083;SDS011;58741;52.672;13.548;2022-12-05T00:18:05;18.67;;;8.70;;
71083;SDS011;58741;52.672;13.548;2022-12-05T00:20:31;19.60;;;9.60;;
71083;SDS011;58741;52.672;13.548;2022-12-05T00:22:56;22.25;;;9.43;;
71083;SDS011;58741;52.672;13.548;2022-12-05T00:25:22;27.95;;;8.90;;
71083;SDS011;58741;52.672;13.548;2022-12-05T00:27:47;24.33;;;8.88;;
71083;SDS011;58741;52.672;13.548;2022-12-05T00:30:13;23.60;;;9.43;;
71083;SDS011;58741;52.672;13.548;2022-12-05T00:32:39;20.30;;;9.18;;
71083;SDS011;58741;52.672;13.548;2022-12-05T00:35:04;21.58;;;9.93;;
71083;SDS011;58741;52.672;13.548;2022-12-05T00:37:30;20.27;;;8.95;;
71083;SDS011;58741;52.672;13.548;2022-12-05T00:39:55;25.65;;;8.85;;
71083;SDS011;58741;52.672;13.548;2022-12-05T00:42:21;22.35;;;9.52;;
71083;SDS011;58741;52.672;13.548;2022-12-05T00:44:49;29.85;;;9.88;;
71083;SDS011;58741;52.672;13.548;2022-12-05T00:47:15;17.15;;;8.27;;
71083;SDS011;58741;52.672;13.548;2022-12-05T00:49:41;39.97;;;12.48;;
71083;SDS011;58741;52.672;13.548;2022-12-05T00:52:06;23.17;;;9.93;;
71083;SDS011;58741;52.672;13.548;2022-12-05T00:54:32;24.77;;;9.10;;
71083;SDS011;58741;52.672;13.548;2022-12-05T00:56:57;26.52;;;10.20;;
71083;SDS011;58741;52.672;13.548;2022-12-05T00:59:23;23.45;;;9.63;;
71083;SDS011;58741;52.672;13.548;2022-12-05T01:01:49;24.65;;;7.95;;
71083;SDS011;58741;52.672;13.548;2022-12-05T01:04:18;17.60;;;7.43;;
71083;SDS011;58741;52.672;13.548;2022-12-05T01:06:46;22.75;;;8.98;;
71083;SDS011;58741;52.672;13.548;2022-12-05T01:09:12;20.88;;;10.18;;
71083;SDS011;58741;52.672;13.548;2022-12-05T01:11:40;26.40;;;11.73;;
71083;SDS011;58741;52.672;13.548;2022-12-05T01:14:06;19.23;;;8.98;;
71083;SDS011;58741;52.672;13.548;2022-12-05T01:16:33;19.55;;;9.68;;
71083;SDS011;58741;52.672;13.548;2022-12-05T01:19:02;25.35;;;10.48;;
71083;SDS011;58741;52.672;13.548;2022-12-05T01:21:30;13.40;;;6.97;;
71083;SDS011;58741;52.672;13.548;2022-12-05T01:23:56;22.25;;;8.90;;
71083;SDS011;58741;52.672;13.548;2022-12-05T01:26:22;24.75;;;10.45;;
71083;SDS011;58741;52.672;13.548;2022-12-05T01:28:48;26.55;;;9.07;;
71083;SDS011;58741;52.672;13.548;2022-12-05T01:33:40;23.65;;;8.85;;
71083;SDS011;58741;52.672;13.548;2022-12-05T01:36:08;21.13;;;8.13;;
71083;SDS011;58741;52.672;13.548;2022-12-05T01:38:35;25.90;;;9.18;;
71083;SDS011;58741;52.672;13.548;2022-12-05T01:41:03;22.70;;;8.18;;
71083;SDS011;58741;52.672;13.548;2022-12-05T01:43:29;19.20;;;8.73;;
71083;SDS011;58741;52.672;13.548;2022-12-05T01:45:55;19.63;;;9.02;;
71083;SDS011;58741;52.672;13.548;2022-12-05T01:48:23;18.48;;;8.93;;
71083;SDS011;58741;52.672;13.548;2022-12-05T01:50:52;20.20;;;8.55;;
71083;SDS011;58741;52.672;13.548;2022-12-05T01:53:19;19.38;;;7.45;;
71083;SDS011;58741;52.672;13.548;2022-12-05T01:55:46;16.38;;;9.10;;
71083;SDS011;58741;52.672;13.548;2022-12-05T01:58:14;22.98;;;11.05;;
71083;SDS011;58741;52.672;13.548;2022-12-05T02:00:40;20.58;;;9.00;;
71083;SDS011;58741;52.672;13.548;2022-12-05T02:03:07;23.75;;;10.40;;
71083;SDS011;58741;52.672;13.548;2022-12-05T02:05:36;21.70;;;10.77;;
71083;SDS011;58741;52.672;13.548;2022-12-05T02:08:04;22.23;;;9.45;;
71083;SDS011;58741;52.672;13.548;2022-12-05T02:10:36;23.35;;;8.27;;
71083;SDS011;58741;52.672;13.548;2022-12-05T02:13:22;20.00;;;8.50;;
71083;SDS011;58741;52.672;13.548;2022-12-05T02:19:23;21.92;;;9.40;;
71083;SDS011;58741;52.672;13.548;2022-12-05T02:22:06;21.30;;;8.73;;
71083;SDS011;58741;52.672;13.548;2022-12-05T02:25:10;16.48;;;8.60;;
71083;SDS011;58741;52.672;13.548;2022-12-05T02:28:08;25.67;;;8.48;;
71083;SDS011;58741;52.672;13.548;2022-12-05T02:30:50;20.20;;;8.02;;
71083;SDS011;58741;52.672;13.548;2022-12-05T02:33:22;19.65;;;9.40;;
71083;SDS011;58741;52.672;13.548;2022-12-05T02:36:02;21.05;;;9.45;;
71083;SDS011;58741;52.672;13.548;2022-12-05T02:41:36;19.20;;;8.48;;
71083;SDS011;58741;52.672;13.548;2022-12-05T02:44:11;15.90;;;7.85;;
71083;SDS011;58741;52.672;13.548;2022-12-05T02:46:42;18.30;;;7.72;;
71083;SDS011;58741;52.672;13.548;2022-12-05T02:49:12;18.67;;;8.27;;
71083;SDS011;58741;52.672;13.548;2022-12-05T02:51:43;21.48;;;8.75;;
71083;SDS011;58741;52.672;13.548;2022-12-05T02:54:13;23.58;;;8.82;;
71083;SDS011;58741;52.672;13.548;2022-12-05T02:56:43;21.05;;;8.35;;
71083;SDS011;58741;52.672;13.548;2022-12-05T02:59:11;23.65;;;8.30;;
71083;SDS011;58741;52.672;13.548;2022-12-05T03:01:37;25.85;;;9.48;;
71083;SDS011;58741;52.672;13.548;2022-12-05T03:04:03;16.25;;;8.10;;
71083;SDS011;58741;52.672;13.548;2022-12-05T03:06:33;21.40;;;9.10;;
71083;SDS011;58741;52.672;13.548;2022-12-05T03:09:07;30.55;;;10.07;;
71083;SDS011;58741;52.672;13.548;2022-12-05T03:11:50;21.92;;;8.75;;
71083;SDS011;58741;52.672;13.548;2022-12-05T03:14:22;16.67;;;7.22;;
71083;SDS011;58741;52.672;13.548;2022-12-05T03:16:52;25.77;;;9.63;;
71083;SDS011;58741;52.672;13.548;2022-12-05T03:19:29;18.10;;;8.23;;
71083;SDS011;58741;52.672;13.548;2022-12-05T03:22:06;19.25;;;7.97;;
71083;SDS011;58741;52.672;13.548;2022-12-05T03:24:35;19.27;;;8.23;;
71083;SDS011;58741;52.672;13.548;2022-12-05T03:27:09;21.98;;;8.10;;
71083;SDS011;58741;52.672;13.548;2022-12-05T03:29:41;14.82;;;8.13;;
71083;SDS011;58741;52.672;13.548;2022-12-05T03:32:30;23.33;;;7.97;;
71083;SDS011;58741;52.672;13.548;2022-12-05T03:37:46;15.68;;;6.95;;
71083;SDS011;58741;52.672;13.548;2022-12-05T03:40:31;15.65;;;7.80;;
71083;SDS011;58741;52.672;13.548;2022-12-05T03:43:13;21.58;;;7.57;;
71083;SDS011;58741;52.672;13.548;2022-12-05T03:46:05;13.88;;;6.82;;
71083;SDS011;58741;52.672;13.548;2022-12-05T03:51:49;18.23;;;6.78;;
71083;SDS011;58741;52.672;13.548;2022-12-05T03:59:46;15.75;;;7.80;;
71083;SDS011;58741;52.672;13.548;2022-12-05T04:02:17;16.73;;;7.20;;
71083;SDS011;58741;52.672;13.548;2022-12-05T04:04:52;14.93;;;6.68;;
71083;SDS011;58741;52.672;13.548;2022-12-05T04:07:22;14.38;;;7.43;;
71083;SDS011;58741;52.672;13.548;2022-12-05T04:09:51;20.75;;;7.38;;
71083;SDS011;58741;52.672;13.548;2022-12-05T04:12:21;14.35;;;6.85;;
71083;SDS011;58741;52.672;13.548;2022-12-05T04:14:52;14.93;;;7.00;;
71083;SDS011;58741;52.672;13.548;2022-12-05T04:17:25;11.98;;;6.72;;
71083;SDS011;58741;52.672;13.548;2022-12-05T04:19:59;12.07;;;5.80;;
71083;SDS011;58741;52.672;13.548;2022-12-05T04:22:47;11.93;;;5.85;;
71083;SDS011;58741;52.672;13.548;2022-12-05T04:25:14;17.77;;;7.78;;
71083;SDS011;58741;52.672;13.548;2022-12-05T04:28:19;15.07;;;7.18;;
71083;SDS011;58741;52.672;13.548;2022-12-05T04:31:02;11.45;;;5.40;;
71083;SDS011;58741;52.672;13.548;2022-12-05T04:33:45;15.45;;;6.22;;
71083;SDS011;58741;52.672;13.548;2022-12-05T04:36:33;13.68;;;5.82;;
71083;SDS011;58741;52.672;13.548;2022-12-05T04:39:10;13.02;;;6.40;;
71083;SDS011;58741;52.672;13.548;2022-12-05T04:41:40;12.52;;;5.57;;
71083;SDS011;58741;52.672;13.548;2022-12-05T04:44:11;23.95;;;6.93;;
71083;SDS011;58741;52.672;13.548;2022-12-05T04:46:40;11.02;;;6.22;;
71083;SDS011;58741;52.672;13.548;2022-12-05T04:49:09;13.90;;;5.45;;
71083;SDS011;58741;52.672;13.548;2022-12-05T04:51:39;14.77;;;6.50;;
71083;SDS011;58741;52.672;13.548;2022-12-05T04:54:08;13.82;;;5.22;;
71083;SDS011;58741;52.672;13.548;2022-12-05T04:56:39;9.45;;;5.40;;
71083;SDS011;58741;52.672;13.548;2022-12-05T04:59:07;10.07;;;3.97;;
71083;SDS011;58741;52.672;13.548;2022-12-05T05:01:41;12.70;;;5.15;;
71083;SDS011;58741;52.672;13.548;2022-12-05T05:04:09;13.48;;;4.78;;
71083;SDS011;58741;52.672;13.548;2022-12-05T05:06:38;10.10;;;6.03;;
71083;SDS011;58741;52.672;13.548;2022-12-05T05:09:05;9.85;;;5.28;;
71083;SDS011;58741;52.672;13.548;2022-12-05T05:11:32;7.47;;;4.10;;
71083;SDS011;58741;52.672;13.548;2022-12-05T05:13:59;12.07;;;5.15;;
71083;SDS011;58741;52.672;13.548;2022-12-05T05:16:26;9.55;;;4.60;;
71083;SDS011;58741;52.672;13.548;2022-12-05T05:18:59;9.82;;;4.57;;
71083;SDS011;58741;52.672;13.548;2022-12-05T05:21:27;12.13;;;4.75;;
71083;SDS011;58741;52.672;13.548;2022-12-05T05:23:57;9.15;;;4.65;;
71083;SDS011;58741;52.672;13.548;2022-12-05T05:26:24;8.43;;;4.20;;
71083;SDS011;58741;52.672;13.548;2022-12-05T05:28:50;11.95;;;5.43;;
71083;SDS011;58741;52.672;13.548;2022-12-05T05:31:17;12.10;;;4.75;;
71083;SDS011;58741;52.672;13.548;2022-12-05T05:33:47;13.77;;;5.05;;
71083;SDS011;58741;52.672;13.548;2022-12-05T05:36:17;7.53;;;4.63;;
71083;SDS011;58741;52.672;13.548;2022-12-05T05:38:44;10.13;;;4.32;;
71083;SDS011;58741;52.672;13.548;2022-12-05T05:41:12;7.50;;;4.10;;
71083;SDS011;58741;52.672;13.548;2022-12-05T05:43:43;9.32;;;3.95;;
71083;SDS011;58741;52.672;13.548;2022-12-05T05:46:09;8.13;;;3.90;;
71083;SDS011;58741;52.672;13.548;2022-12-05T05:48:35;8.98;;;4.30;;
71083;SDS011;58741;52.672;13.548;2022-12-05T05:51:02;8.52;;;3.45;;
71083;SDS011;58741;52.672;13.548;2022-12-05T05:53:28;6.35;;;4.38;;
71083;SDS011;58741;52.672;13.548;2022-12-05T05:55:54;6.95;;;3.70;;
71083;SDS011;58741;52.672;13.548;2022-12-05T05:58:20;6.55;;;3.42;;
71083;SDS011;58741;52.672;13.548;2022-12-05T06:00:46;6.40;;;3.30;;
71083;SDS011;58741;52.672;13.548;2022-12-05T06:03:12;9.75;;;3.22;;
71083;SDS011;58741;52.672;13.548;2022-12-05T06:05:37;8.75;;;3.45;;
71083;SDS011;58741;52.672;13.548;2022-12-05T06:08:03;10.02;;;3.72;;
71083;SDS011;58741;52.672;13.548;2022-12-05T06:10:28;4.18;;;2.78;;
71083;SDS011;58741;52.672;13.548;2022-12-05T06:12:55;4.28;;;2.95;;
71083;SDS011;58741;52.672;13.548;2022-12-05T06:15:21;5.40;;;3.17;;
71083;SDS011;58741;52.672;13.548;2022-12-05T06:17:47;9.32;;;3.28;;
71083;SDS011;58741;52.672;13.548;2022-12-05T06:20:13;5.38;;;3.05;;
71083;SDS011;58741;52.672;13.548;2022-12-05T06:22:39;8.73;;;4.28;;
71083;SDS011;58741;52.672;13.548;2022-12-05T06:25:04;7.25;;;3.90;;
71083;SDS011;58741;52.672;13.548;2022-12-05T06:27:31;5.82;;;3.50;;
71083;SDS011;58741;52.672;13.548;2022-12-05T06:29:57;5.30;;;2.75;;
71083;SDS011;58741;52.672;13.548;2022-12-05T06:32:22;8.27;;;3.05;;
71083;SDS011;58741;52.672;13.548;2022-12-05T06:34:48;7.78;;;4.40;;
71083;SDS011;58741;52.672;13.548;2022-12-05T06:37:14;5.70;;;2.90;;
71083;SDS011;58741;52.672;13.548;2022-12-05T06:39:39;9.38;;;4.20;;
71083;SDS011;58741;52.672;13.548;2022-12-05T06:42:05;6.53;;;3.47;;
71083;SDS011;58741;52.672;13.548;2022-12-05T06:44:30;11.02;;;3.65;;
71083;SDS011;58741;52.672;13.548;2022-12-05T06:46:56;4.45;;;2.50;;
71083;SDS011;58741;52.672;13.548;2022-12-05T06:49:22;9.75;;;4.18;;
71083;SDS011;58741;52.672;13.548;2022-12-05T06:51:51;7.63;;;3.50;;
71083;SDS011;58741;52.672;13.548;2022-12-05T06:54:17;5.38;;;2.63;;
71083;SDS011;58741;52.672;13.548;2022-12-05T06:56:43;9.07;;;3.05;;
71083;SDS011;58741;52.672;13.548;2022-12-05T06:59:09;8.57;;;3.83;;
71083;SDS011;58741;52.672;13.548;2022-12-05T07:01:34;9.07;;;3.38;;
71083;SDS011;58741;52.672;13.548;2022-12-05T07:04:10;5.32;;;3.35;;
71083;SDS011;58741;52.672;13.548;2022-12-05T07:06:41;5.43;;;2.65;;
71083;SDS011;58741;52.672;13.548;2022-12-05T07:09:08;8.32;;;3.28;;
71083;SDS011;58741;52.672;13.548;2022-12-05T07:11:34;4.25;;;2.47;;
71083;SDS011;58741;52.672;13.548;2022-12-05T07:14:01;5.18;;;2.83;;
71083;SDS011;58741;52.672;13.548;2022-12-05T07:16:27;8.20;;;3.95;;
71083;SDS011;58741;52.672;13.548;2022-12-05T07:18:53;4.40;;;2.25;;
71083;SDS011;58741;52.672;13.548;2022-12-05T07:21:18;4.78;;;2.65;;
71083;SDS011;58741;52.672;13.548;2022-12-05T07:23:46;8.00;;;3.35;;
71083;SDS011;58741;52.672;13.548;2022-12-05T07:26:14;7.32;;;3.03;;
71083;SDS011;58741;52.672;13.548;2022-12-05T07:28:42;6.10;;;2.60;;
71083;SDS011;58741;52.672;13.548;2022-12-05T07:31:12;8.35;;;3.22;;
71083;SDS011;58741;52.672;13.548;2022-12-05T07:33:39;14.27;;;3.33;;
71083;SDS011;58741;52.672;13.548;2022-12-05T07:36:06;6.57;;;3.70;;
71083;SDS011;58741;52.672;13.548;2022-12-05T07:38:35;9.55;;;3.60;;
71083;SDS011;58741;52.672;13.548;2022-12-05T07:41:08;6.95;;;3.97;;
71083;SDS011;58741;52.672;13.548;2022-12-05T07:43:43;4.75;;;2.83;;
71083;SDS011;58741;52.672;13.548;2022-12-05T07:46:09;7.57;;;3.50;;
71083;SDS011;58741;52.672;13.548;2022-12-05T07:48:38;5.53;;;3.00;;
71083;SDS011;58741;52.672;13.548;2022-12-05T07:51:04;7.45;;;3.20;;
71083;SDS011;58741;52.672;13.548;2022-12-05T07:53:32;6.35;;;3.33;;
71083;SDS011;58741;52.672;13.548;2022-12-05T07:55:58;8.80;;;3.05;;
71083;SDS011;58741;52.672;13.548;2022-12-05T07:58:29;6.03;;;2.95;;
71083;SDS011;58741;52.672;13.548;2022-12-05T08:00:55;6.75;;;3.15;;
71083;SDS011;58741;52.672;13.548;2022-12-05T08:03:21;6.03;;;3.58;;
71083;SDS011;58741;52.672;13.548;2022-12-05T08:05:46;6.85;;;3.42;;
71083;SDS011;58741;52.672;13.548;2022-12-05T08:08:12;5.70;;;3.08;;
71083;SDS011;58741;52.672;13.548;2022-12-05T08:10:38;11.55;;;2.95;;
71083;SDS011;58741;52.672;13.548;2022-12-05T08:13:03;6.45;;;2.95;;
71083;SDS011;58741;52.672;13.548;2022-12-05T08:15:29;5.68;;;2.95;;
71083;SDS011;58741;52.672;13.548;2022-12-05T08:17:54;5.00;;;2.63;;
71083;SDS011;58741;52.672;13.548;2022-12-05T08:20:20;5.68;;;2.90;;
71083;SDS011;58741;52.672;13.548;2022-12-05T08:22:46;6.75;;;3.33;;
71083;SDS011;58741;52.672;13.548;2022-12-05T08:25:11;6.60;;;3.03;;
71083;SDS011;58741;52.672;13.548;2022-12-05T08:27:37;3.40;;;2.30;;
71083;SDS011;58741;52.672;13.548;2022-12-05T08:30:03;5.55;;;3.50;;
71083;SDS011;58741;52.672;13.548;2022-12-05T08:32:29;5.50;;;2.55;;
71083;SDS011;58741;52.672;13.548;2022-12-05T08:34:55;3.17;;;2.17;;
71083;SDS011;58741;52.672;13.548;2022-12-05T08:37:20;4.75;;;2.40;;
71083;SDS011;58741;52.672;13.548;2022-12-05T08:39:47;4.25;;;2.65;;
71083;SDS011;58741;52.672;13.548;2022-12-05T08:42:12;6.20;;;3.40;;
71083;SDS011;58741;52.672;13.548;2022-12-05T08:44:38;4.90;;;2.72;;
71083;SDS011;58741;52.672;13.548;2022-12-05T08:47:03;5.25;;;2.83;;
71083;SDS011;58741;52.672;13.548;2022-12-05T08:49:29;4.68;;;2.88;;
71083;SDS011;58741;52.672;13.548;2022-12-05T08:51:54;5.68;;;3.10;;
71083;SDS011;58741;52.672;13.548;2022-12-05T08:54:20;4.50;;;2.60;;
71083;SDS011;58741;52.672;13.548;2022-12-05T08:56:48;4.85;;;2.92;;
71083;SDS011;58741;52.672;13.548;2022-12-05T08:59:15;7.53;;;3.53;;
71083;SDS011;58741;52.672;13.548;2022-12-05T09:01:40;7.38;;;3.20;;
71083;SDS011;58741;52.672;13.548;2022-12-05T09:04:06;4.18;;;2.72;;
71083;SDS011;58741;52.672;13.548;2022-12-05T09:06:32;4.88;;;3.00;;
71083;SDS011;58741;52.672;13.548;2022-12-05T09:09:00;4.20;;;2.58;;
71083;SDS011;58741;52.672;13.548;2022-12-05T09:11:29;11.57;;;3.72;;
71083;SDS011;58741;52.672;13.548;2022-12-05T09:13:57;6.43;;;3.70;;
71083;SDS011;58741;52.672;13.548;2022-12-05T09:16:25;5.45;;;2.97;;
71083;SDS011;58741;52.672;13.548;2022-12-05T09:18:56;4.32;;;2.90;;
71083;SDS011;58741;52.672;13.548;2022-12-05T09:21:24;10.77;;;2.97;;
71083;SDS011;58741;52.672;13.548;2022-12-05T09:23:54;4.25;;;2.75;;
71083;SDS011;58741;52.672;13.548;2022-12-05T09:26:22;6.75;;;3.30;;
71083;SDS011;58741;52.672;13.548;2022-12-05T09:28:49;6.00;;;2.92;;
71083;SDS011;58741;52.672;13.548;2022-12-05T09:31:17;5.28;;;3.05;;
71083;SDS011;58741;52.672;13.548;2022-12-05T09:33:45;4.82;;;3.08;;
71083;SDS011;58741;52.672;13.548;2022-12-05T09:36:16;5.93;;;2.90;;
71083;SDS011;58741;52.672;13.548;2022-12-05T09:38:43;7.63;;;3.45;;
71083;SDS011;58741;52.672;13.548;2022-12-05T09:41:23;5.75;;;3.53;;
71083;SDS011;58741;52.672;13.548;2022-12-05T09:46:55;7.30;;;3.65;;
71083;SDS011;58741;52.672;13.548;2022-12-05T09:49:24;6.95;;;3.78;;
71083;SDS011;58741;52.672;13.548;2022-12-05T09:51:51;5.30;;;3.25;;
71083;SDS011;58741;52.672;13.548;2022-12-05T09:54:19;6.10;;;3.13;;
71083;SDS011;58741;52.672;13.548;2022-12-05T09:56:47;6.00;;;3.55;;
71083;SDS011;58741;52.672;13.548;2022-12-05T09:59:15;10.75;;;4.38;;
71083;SDS011;58741;52.672;13.548;2022-12-05T10:10:11;6.95;;;3.38;;
71083;SDS011;58741;52.672;13.548;2022-12-05T10:12:58;8.82;;;3.67;;
71083;SDS011;58741;52.672;13.548;2022-12-05T10:15:31;8.45;;;3.65;;
71083;SDS011;58741;52.672;13.548;2022-12-05T10:18:26;4.72;;;3.20;;
71083;SDS011;58741;52.672;13.548;2022-12-05T10:21:03;7.55;;;3.80;;
71083;SDS011;58741;52.672;13.548;2022-12-05T10:23:37;10.05;;;4.25;;
71083;SDS011;58741;52.672;13.548;2022-12-05T10:26:24;5.65;;;3.45;;
71083;SDS011;58741;52.672;13.548;2022-12-05T10:31:32;5.88;;;3.80;;
71083;SDS011;58741;52.672;13.548;2022-12-05T10:34:03;6.13;;;3.50;;
71083;SDS011;58741;52.672;13.548;2022-12-05T10:36:52;6.72;;;3.90;;
71083;SDS011;58741;52.672;13.548;2022-12-05T10:39:22;7.88;;;4.53;;
71083;SDS011;58741;52.672;13.548;2022-12-05T10:41:48;6.45;;;3.17;;
71083;SDS011;58741;52.672;13.548;2022-12-05T10:44:14;8.98;;;3.45;;
71083;SDS011;58741;52.672;13.548;2022-12-05T10:46:39;8.52;;;4.22;;
71083;SDS011;58741;52.672;13.548;2022-12-05T10:49:09;8.98;;;4.75;;
71083;SDS011;58741;52.672;13.548;2022-12-05T10:51:36;10.55;;;4.28;;
71083;SDS011;58741;52.672;13.548;2022-12-05T10:54:23;11.23;;;4.30;;
71083;SDS011;58741;52.672;13.548;2022-12-05T10:56:52;7.68;;;3.65;;
71083;SDS011;58741;52.672;13.548;2022-12-05T10:59:19;7.15;;;3.90;;
71083;SDS011;58741;52.672;13.548;2022-12-05T11:01:51;7.60;;;3.00;;
71083;SDS011;58741;52.672;13.548;2022-12-05T11:04:28;8.32;;;4.38;;
71083;SDS011;58741;52.672;13.548;2022-12-05T11:06:59;9.77;;;5.15;;
71083;SDS011;58741;52.672;13.548;2022-12-05T11:09:27;8.30;;;3.75;;
71083;SDS011;58741;52.672;13.548;2022-12-05T11:11:59;7.47;;;4.13;;
71083;SDS011;58741;52.672;13.548;2022-12-05T11:14:57;7.78;;;4.15;;
71083;SDS011;58741;52.672;13.548;2022-12-05T11:17:26;8.40;;;4.00;;
71083;SDS011;58741;52.672;13.548;2022-12-05T11:19:55;10.77;;;3.63;;
71083;SDS011;58741;52.672;13.548;2022-12-05T11:22:29;9.50;;;4.13;;
71083;SDS011;58741;52.672;13.548;2022-12-05T11:24:56;10.75;;;5.10;;
71083;SDS011;58741;52.672;13.548;2022-12-05T11:27:27;15.30;;;5.07;;
71083;SDS011;58741;52.672;13.548;2022-12-05T11:29:59;7.82;;;3.90;;
71083;SDS011;58741;52.672;13.548;2022-12-05T11:32:28;9.48;;;4.68;;
71083;SDS011;58741;52.672;13.548;2022-12-05T11:34:57;8.43;;;4.43;;
71083;SDS011;58741;52.672;13.548;2022-12-05T11:37:37;9.18;;;4.88;;
71083;SDS011;58741;52.672;13.548;2022-12-05T11:40:14;11.15;;;5.22;;
71083;SDS011;58741;52.672;13.548;2022-12-05T11:48:30;10.70;;;4.40;;
71083;SDS011;58741;52.672;13.548;2022-12-05T11:51:11;7.95;;;4.78;;
71083;SDS011;58741;52.672;13.548;2022-12-05T12:01:59;11.77;;;4.75;;
71083;SDS011;58741;52.672;13.548;2022-12-05T12:07:28;9.35;;;5.18;;
71083;SDS011;58741;52.672;13.548;2022-12-05T12:12:54;8.38;;;5.35;;
71083;SDS011;58741;52.672;13.548;2022-12-05T12:24:31;12.55;;;5.80;;
71083;SDS011;58741;52.672;13.548;2022-12-05T12:27:36;7.60;;;4.07;;
71083;SDS011;58741;52.672;13.548;2022-12-05T12:30:21;10.05;;;5.45;;
71083;SDS011;58741;52.672;13.548;2022-12-05T12:33:12;10.25;;;5.65;;
71083;SDS011;58741;52.672;13.548;2022-12-05T12:36:05;9.23;;;5.07;;
71083;SDS011;58741;52.672;13.548;2022-12-05T12:38:49;10.48;;;5.70;;
71083;SDS011;58741;52.672;13.548;2022-12-05T12:46:54;11.20;;;4.63;;
71083;SDS011;58741;52.672;13.548;2022-12-05T12:52:02;14.20;;;5.25;;
71083;SDS011;58741;52.672;13.548;2022-12-05T13:03:15;11.60;;;4.95;;
71083;SDS011;58741;52.672;13.548;2022-12-05T13:05:47;12.40;;;5.82;;
71083;SDS011;58741;52.672;13.548;2022-12-05T13:10:57;15.43;;;4.28;;
71083;SDS011;58741;52.672;13.548;2022-12-05T13:13:26;16.08;;;5.72;;
71083;SDS011;58741;52.672;13.548;2022-12-05T13:16:00;7.57;;;4.78;;
71083;SDS011;58741;52.672;13.548;2022-12-05T13:18:31;7.03;;;3.80;;
71083;SDS011;58741;52.672;13.548;2022-12-05T13:20:59;9.77;;;4.00;;
71083;SDS011;58741;52.672;13.548;2022-12-05T13:23:35;9.75;;;4.75;;
71083;SDS011;58741;52.672;13.548;2022-12-05T13:26:17;8.32;;;3.80;;
71083;SDS011;58741;52.672;13.548;2022-12-05T13:28:52;7.50;;;4.15;;
71083;SDS011;58741;52.672;13.548;2022-12-05T13:31:42;11.18;;;5.32;;
71083;SDS011;58741;52.672;13.548;2022-12-05T13:36:54;11.73;;;4.63;;
71083;SDS011;58741;52.672;13.548;2022-12-05T13:39:40;4.72;;;3.47;;
71083;SDS011;58741;52.672;13.548;2022-12-05T13:42:32;6.07;;;4.15;;
71083;SDS011;58741;52.672;13.548;2022-12-05T13:47:33;6.20;;;4.10;;
71083;SDS011;58741;52.672;13.548;2022-12-05T13:52:41;11.57;;;5.05;;
71083;SDS011;58741;52.672;13.548;2022-12-05T13:57:54;13.40;;;4.85;;
71083;SDS011;58741;52.672;13.548;2022-12-05T14:00:24;8.90;;;4.30;;
71083;SDS011;58741;52.672;13.548;2022-12-05T14:03:01;7.53;;;4.75;;
71083;SDS011;58741;52.672;13.548;2022-12-05T14:05:35;9.18;;;5.07;;
71083;SDS011;58741;52.672;13.548;2022-12-05T14:15:42;7.20;;;4.38;;
71083;SDS011;58741;52.672;13.548;2022-12-05T14:20:46;12.85;;;6.55;;
71083;SDS011;58741;52.672;13.548;2022-12-05T14:26:40;16.20;;;6.88;;
71083;SDS011;58741;52.672;13.548;2022-12-05T14:29:17;10.18;;;4.97;;
71083;SDS011;58741;52.672;13.548;2022-12-05T14:37:53;7.95;;;4.00;;
71083;SDS011;58741;52.672;13.548;2022-12-05T14:40:38;12.32;;;5.22;;
71083;SDS011;58741;52.672;13.548;2022-12-05T14:43:17;6.75;;;4.25;;
71083;SDS011;58741;52.672;13.548;2022-12-05T14:55:48;9.52;;;4.78;;
71083;SDS011;58741;52.672;13.548;2022-12-05T15:01:21;9.13;;;4.53;;
71083;SDS011;58741;52.672;13.548;2022-12-05T15:06:41;10.18;;;4.78;;
71083;SDS011;58741;52.672;13.548;2022-12-05T15:09:27;7.63;;;3.97;;
71083;SDS011;58741;52.672;13.548;2022-12-05T15:12:39;7.18;;;4.28;;
71083;SDS011;58741;52.672;13.548;2022-12-05T15:15:11;13.93;;;5.30;;
71083;SDS011;58741;52.672;13.548;2022-12-05T15:17:59;15.43;;;5.40;;
71083;SDS011;58741;52.672;13.548;2022-12-05T15:20:53;7.78;;;4.00;;
71083;SDS011;58741;52.672;13.548;2022-12-05T15:31:47;9.75;;;5.22;;
71083;SDS011;58741;52.672;13.548;2022-12-05T15:39:30;10.20;;;5.03;;
71083;SDS011;58741;52.672;13.548;2022-12-05T15:42:14;13.32;;;5.18;;
71083;SDS011;58741;52.672;13.548;2022-12-05T15:44:40;11.48;;;4.82;;
71083;SDS011;58741;52.672;13.548;2022-12-05T15:47:16;9.90;;;4.45;;
71083;SDS011;58741;52.672;13.548;2022-12-05T15:49:45;8.35;;;4.25;;
71083;SDS011;58741;52.672;13.548;2022-12-05T15:52:16;11.63;;;5.65;;
71083;SDS011;58741;52.672;13.548;2022-12-05T15:54:51;15.90;;;4.97;;
71083;SDS011;58741;52.672;13.548;2022-12-05T15:57:20;12.07;;;5.50;;
71083;SDS011;58741;52.672;13.548;2022-12-05T16:00:05;14.90;;;6.50;;
71083;SDS011;58741;52.672;13.548;2022-12-05T16:02:40;10.45;;;4.75;;
71083;SDS011;58741;52.672;13.548;2022-12-05T16:05:17;11.25;;;5.00;;
71083;SDS011;58741;52.672;13.548;2022-12-05T16:07:47;14.90;;;5.22;;
71083;SDS011;58741;52.672;13.548;2022-12-05T16:10:14;12.13;;;5.28;;
71083;SDS011;58741;52.672;13.548;2022-12-05T16:12:41;14.20;;;5.10;;
71083;SDS011;58741;52.672;13.548;2022-12-05T16:15:10;9.57;;;5.05;;
71083;SDS011;58741;52.672;13.548;2022-12-05T16:17:52;9.00;;;4.68;;
71083;SDS011;58741;52.672;13.548;2022-12-05T16:22:49;12.75;;;5.38;;
71083;SDS011;58741;52.672;13.548;2022-12-05T16:25:21;13.27;;;5.82;;
71083;SDS011;58741;52.672;13.548;2022-12-05T16:27:55;9.35;;;4.80;;
71083;SDS011;58741;52.672;13.548;2022-12-05T16:30:22;10.30;;;4.97;;
71083;SDS011;58741;52.672;13.548;2022-12-05T16:32:48;10.10;;;5.15;;
71083;SDS011;58741;52.672;13.548;2022-12-05T16:35:32;10.38;;;5.15;;
71083;SDS011;58741;52.672;13.548;2022-12-05T16:38:10;9.77;;;5.00;;
71083;SDS011;58741;52.672;13.548;2022-12-05T16:40:39;10.68;;;4.38;;
71083;SDS011;58741;52.672;13.548;2022-12-05T16:45:49;10.13;;;5.15;;
71083;SDS011;58741;52.672;13.548;2022-12-05T16:50:49;9.70;;;5.40;;
71083;SDS011;58741;52.672;13.548;2022-12-05T16:53:21;7.03;;;4.05;;
71083;SDS011;58741;52.672;13.548;2022-12-05T16:58:24;11.15;;;5.45;;
71083;SDS011;58741;52.672;13.548;2022-12-05T17:00:58;8.40;;;4.45;;
71083;SDS011;58741;52.672;13.548;2022-12-05T17:03:28;8.15;;;4.53;;
71083;SDS011;58741;52.672;13.548;2022-12-05T17:05:55;10.35;;;5.20;;
71083;SDS011;58741;52.672;13.548;2022-12-05T17:08:22;14.27;;;6.70;;
71083;SDS011;58741;52.672;13.548;2022-12-05T17:10:48;9.52;;;5.30;;
71083;SDS011;58741;52.672;13.548;2022-12-05T17:13:14;12.25;;;4.90;;
71083;SDS011;58741;52.672;13.548;2022-12-05T17:15:42;13.00;;;6.75;;
71083;SDS011;58741;52.672;13.548;2022-12-05T17:18:17;15.20;;;6.85;;
71083;SDS011;58741;52.672;13.548;2022-12-05T17:20:46;11.55;;;5.75;;
71083;SDS011;58741;52.672;13.548;2022-12-05T17:23:15;16.27;;;7.03;;